Time;durP1;ratioP1;P1;durP2;ratioP2;P2;SDS_P1;SDS_P2;PMS_P1;PMS_P2;Temp;Humidity;BMP_temperature;BMP_pressure;BME280_temperature;BME280_humidity;BME280_pressure;Samples;Min_cycle;Max_cycle;Signal;HPM_P1;HPM_P2
2021/12/15 00:02:25;;;;;;;108.53;25.93;;;;;;;3.59;100.00;100028.59;5031406;28;20298;-54
2021/12/15 00:04:55;;;;;;;85.60;25.17;;;;;;;3.55;100.00;100027.06;5038171;28;20192;-54
2021/12/15 00:07:24;;;;;;;79.13;27.37;;;;;;;3.54;100.00;100026.25;5051726;28;20234;-55
2021/12/15 00:09:50;;;;;;;136.03;27.73;;;;;;;3.53;100.00;100032.31;5050316;28;20553;-55
2021/12/15 00:12:18;;;;;;;143.73;28.73;;;;;;;3.55;100.00;100034.81;5051330;28;21051;-56
2021/12/15 00:14:46;;;;;;;73.03;26.90;;;;;;;3.60;100.00;100034.59;5050500;28;20608;-56
2021/12/15 00:17:15;;;;;;;76.70;26.77;;;;;;;3.58;100.00;100032.09;5050615;28;20196;-55
2021/12/15 00:19:42;;;;;;;85.77;28.03;;;;;;;3.53;100.00;100036.63;5051172;28;20187;-55
2021/12/15 00:22:09;;;;;;;82.33;27.00;;;;;;;3.56;100.00;100036.47;5049965;28;20203;-55
2021/12/15 00:24:36;;;;;;;103.17;27.73;;;;;;;3.60;100.00;100035.44;5049042;28;20211;-52
2021/12/15 00:27:03;;;;;;;92.83;28.53;;;;;;;3.60;100.00;100040.59;5050264;28;20207;-55
2021/12/15 00:29:30;;;;;;;107.37;27.43;;;;;;;3.66;100.00;100048.06;5049623;28;20228;-56
2021/12/15 00:31:58;;;;;;;183.43;27.60;;;;;;;3.60;100.00;100048.34;5048872;28;20219;-56
2021/12/15 00:34:26;;;;;;;218.97;28.93;;;;;;;3.60;100.00;100050.91;5051266;28;20187;-56
2021/12/15 00:36:53;;;;;;;83.63;25.33;;;;;;;3.60;100.00;100045.75;5050868;28;20269;-55
2021/12/15 00:39:26;;;;;;;103.10;26.07;;;;;;;3.63;100.00;100042.22;5050892;28;20206;-56
2021/12/15 00:41:52;;;;;;;103.37;28.50;;;;;;;3.66;100.00;100040.31;5048861;28;20297;-54
2021/12/15 00:44:19;;;;;;;271.50;30.80;;;;;;;3.59;100.00;100031.16;5051278;28;20183;-56
2021/12/15 00:46:48;;;;;;;146.77;26.80;;;;;;;3.63;100.00;100034.47;5050391;28;20199;-55
2021/12/15 00:49:15;;;;;;;208.00;28.53;;;;;;;3.65;100.00;100035.22;5051114;28;20463;-53
2021/12/15 00:51:43;;;;;;;195.43;27.13;;;;;;;3.62;100.00;100033.63;5065418;28;20211;-56
2021/12/15 00:54:11;;;;;;;125.23;27.00;;;;;;;3.66;100.00;100029.97;5050127;28;20609;-56
2021/12/15 00:56:38;;;;;;;153.67;27.63;;;;;;;3.61;100.00;100031.13;5050871;28;20198;-56
2021/12/15 00:59:06;;;;;;;114.03;27.30;;;;;;;3.63;100.00;100029.31;5049561;28;20282;-56
2021/12/15 01:01:35;;;;;;;127.40;25.57;;;;;;;3.66;100.00;100029.16;5048301;28;20302;-55
2021/12/15 01:04:01;;;;;;;82.07;24.47;;;;;;;3.67;100.00;100036.81;5049160;28;20195;-56
2021/12/15 01:06:32;;;;;;;123.33;24.90;;;;;;;3.71;100.00;100031.50;5030168;28;20282;-56
2021/12/15 01:09:06;;;;;;;65.53;23.73;;;;;;;3.74;100.00;100033.94;5029619;28;20176;-53
2021/12/15 01:11:52;;;;;;;146.50;26.60;;;;;;;3.78;100.00;100028.56;5042835;28;20219;-55
2021/12/15 01:14:35;;;;;;;171.17;26.77;;;;;;;3.75;100.00;100023.53;5051218;28;20216;-56
2021/12/15 01:19:53;;;;;;;83.60;24.53;;;;;;;3.77;100.00;100020.91;5048774;28;20199;-55
2021/12/15 01:22:27;;;;;;;156.73;26.27;;;;;;;3.73;100.00;100025.34;5049806;28;20214;-56
2021/12/15 01:24:58;;;;;;;230.67;28.23;;;;;;;3.67;100.00;100029.06;5049158;28;20196;-53
2021/12/15 01:27:26;;;;;;;91.63;25.10;;;;;;;3.67;100.00;100025.66;5049234;28;20214;-56
2021/12/15 01:29:53;;;;;;;154.00;25.90;;;;;;;3.72;100.00;100020.28;5049466;28;20527;-55
2021/12/15 01:32:20;;;;;;;158.50;27.77;;;;;;;3.70;100.00;100025.53;5049901;28;20586;-55
2021/12/15 01:34:48;;;;;;;81.77;25.10;;;;;;;3.74;100.00;100028.78;5050490;28;20194;-53
2021/12/15 01:37:17;;;;;;;86.33;25.37;;;;;;;3.73;100.00;100025.34;5050864;28;20309;-54
2021/12/15 01:39:44;;;;;;;111.83;26.47;;;;;;;3.74;100.00;100037.34;5051928;28;20187;-56
2021/12/15 01:42:13;;;;;;;74.23;24.03;;;;;;;3.75;100.00;100033.88;5053898;28;20283;-54
2021/12/15 01:47:25;;;;;;;170.50;27.33;;;;;;;3.77;100.00;100044.13;5054199;28;20207;-54
2021/12/15 01:49:55;;;;;;;127.70;25.13;;;;;;;3.78;100.00;100040.66;5053610;28;20194;-54
2021/12/15 01:52:25;;;;;;;193.23;28.57;;;;;;;3.78;100.00;100046.63;5053981;28;20246;-56
2021/12/15 01:54:55;;;;;;;92.43;25.17;;;;;;;3.77;100.00;100047.53;5052752;28;20194;-56
2021/12/15 01:57:25;;;;;;;136.77;27.10;;;;;;;3.78;100.00;100044.06;5052909;28;20656;-55
2021/12/15 01:59:54;;;;;;;176.60;27.77;;;;;;;3.78;100.00;100046.63;5051969;28;20197;-55
2021/12/15 02:02:22;;;;;;;102.73;25.23;;;;;;;3.79;100.00;100052.66;5053779;28;20214;-53
2021/12/15 02:04:50;;;;;;;108.47;25.53;;;;;;;3.81;100.00;100048.25;5054084;28;20280;-53
2021/12/15 02:07:19;;;;;;;80.30;24.07;;;;;;;3.82;100.00;100050.75;5053157;28;20290;-55
2021/12/15 02:10:05;;;;;;;95.93;25.17;;;;;;;3.81;100.00;100049.06;5053473;28;20191;-56
2021/12/15 02:12:38;;;;;;;206.67;27.63;;;;;;;3.80;100.00;100054.31;5033920;28;20554;-55
2021/12/15 02:15:11;;;;;;;136.90;25.40;;;;;;;3.76;100.00;100045.88;5033296;28;20190;-56
2021/12/15 02:17:38;;;;;;;116.93;24.63;;;;;;;3.74;100.00;100052.84;5032646;28;20193;-55
2021/12/15 02:20:07;;;;;;;193.87;28.27;;;;;;;3.67;100.00;100047.16;5031647;28;20194;-54
2021/12/15 02:22:35;;;;;;;260.07;28.93;;;;;;;3.59;100.00;100045.84;5032218;28;20251;-56
2021/12/15 02:25:04;;;;;;;127.73;26.63;;;;;;;3.58;100.00;100057.91;5051033;28;20262;-56
2021/12/15 02:27:33;;;;;;;227.80;29.30;;;;;;;3.55;100.00;100052.88;5051969;28;20228;-55
2021/12/15 02:30:16;;;;;;;138.83;25.33;;;;;;;3.61;100.00;100055.19;5051557;28;20187;-56
2021/12/15 02:32:54;;;;;;;87.10;24.87;;;;;;;3.65;100.00;100048.16;5053477;28;20266;-56
2021/12/15 02:38:05;;;;;;;219.20;28.97;;;;;;;3.67;100.00;100052.31;5025733;28;20249;-53
2021/12/15 02:40:32;;;;;;;170.17;26.10;;;;;;;3.73;100.00;100052.94;5047810;28;20203;-56
2021/12/15 02:43:00;;;;;;;172.40;26.90;;;;;;;3.75;100.00;100040.78;5048607;28;20192;-53
2021/12/15 02:45:27;;;;;;;134.70;26.17;;;;;;;3.75;100.00;100039.03;5052513;28;20560;-56
2021/12/15 02:47:55;;;;;;;164.30;24.60;;;;;;;3.74;100.00;100037.34;5052821;28;20209;-56
2021/12/15 02:50:28;;;;;;;77.40;24.20;;;;;;;3.76;100.00;100042.47;5051121;28;20193;-55
2021/12/15 02:52:58;;;;;;;124.83;25.90;;;;;;;3.79;100.00;100039.75;5053235;28;20201;-56
2021/12/15 02:55:26;;;;;;;94.07;24.67;;;;;;;3.73;100.00;100035.69;5053383;28;20189;-53
2021/12/15 02:57:53;;;;;;;139.17;26.87;;;;;;;3.74;100.00;100036.53;5053250;28;20183;-56
2021/12/15 03:00:23;;;;;;;128.30;25.53;;;;;;;3.76;100.00;100038.13;5052373;28;20195;-55
2021/12/15 03:05:39;;;;;;;82.07;24.90;;;;;;;3.81;100.00;100037.91;5053256;28;20265;-53
2021/12/15 03:08:11;;;;;;;172.43;25.77;;;;;;;3.81;100.00;100036.16;5051752;28;20211;-53
2021/12/15 03:16:14;;;;;;;76.17;23.83;;;;;;;3.76;100.00;100032.94;5051189;28;20218;-56
2021/12/15 03:18:41;;;;;;;126.13;25.67;;;;;;;3.76;100.00;100043.28;5050478;28;20301;-57
2021/12/15 03:21:10;;;;;;;103.80;25.33;;;;;;;3.74;100.00;100044.28;5051167;28;20298;-55
2021/12/15 03:23:45;;;;;;;162.47;25.43;;;;;;;3.76;100.00;100045.88;5051898;28;20203;-57
2021/12/15 03:26:16;;;;;;;171.13;25.30;;;;;;;3.74;100.00;100049.44;5052487;28;20183;-54
2021/12/15 03:34:37;;;;;;;107.30;24.27;;;;;;;3.68;100.00;100048.00;5052050;28;20211;-57
2021/12/15 03:37:20;;;;;;;72.57;24.00;;;;;;;3.59;100.00;100045.84;5052195;28;20188;-57
2021/12/15 03:39:48;;;;;;;166.93;26.10;;;;;;;3.65;100.00;100051.53;5051728;28;20733;-57
2021/12/15 03:42:21;;;;;;;233.37;25.47;;;;;;;3.66;100.00;100044.66;5051761;28;20216;-56
2021/12/15 03:44:49;;;;;;;202.50;26.00;;;;;;;3.66;100.00;100044.66;5052151;28;20195;-55
2021/12/15 03:47:18;;;;;;;174.30;27.53;;;;;;;3.67;100.00;100047.16;5051859;28;20191;-57
2021/12/15 03:49:45;;;;;;;70.70;22.80;;;;;;;3.65;100.00;100048.16;5051943;28;20564;-57
2021/12/15 03:52:14;;;;;;;103.23;23.57;;;;;;;3.68;100.00;100048.81;5051817;28;20286;-56
2021/12/15 03:54:42;;;;;;;89.63;22.87;;;;;;;3.68;100.00;100048.00;5052248;28;20195;-57
2021/12/15 03:57:09;;;;;;;313.77;29.57;;;;;;;3.65;100.00;100054.13;5051866;28;20183;-54
2021/12/15 03:59:42;;;;;;;163.90;26.47;;;;;;;3.65;100.00;100050.72;5051310;28;20192;-57
2021/12/15 04:02:09;;;;;;;122.53;24.40;;;;;;;3.66;100.00;100047.25;5051100;28;20211;-56
2021/12/15 04:04:36;;;;;;;157.57;25.43;;;;;;;3.65;100.00;100054.13;5051387;28;20675;-57
2021/12/15 04:07:04;;;;;;;113.03;25.77;;;;;;;3.56;100.00;100051.97;5051819;28;20187;-56
2021/12/15 04:09:30;;;;;;;160.90;26.90;;;;;;;3.54;100.00;100053.78;5051433;28;20192;-55
2021/12/15 04:11:58;;;;;;;96.57;25.40;;;;;;;3.59;100.00;100058.75;5066117;28;20578;-56
2021/12/15 04:14:29;;;;;;;84.60;23.27;;;;;;;3.62;100.00;100048.28;5071387;28;20688;-56
2021/12/15 04:17:03;;;;;;;131.10;24.80;;;;;;;3.66;100.00;100055.81;5071574;28;20194;-57
2021/12/15 04:19:31;;;;;;;169.60;27.37;;;;;;;3.60;100.00;100058.66;5071414;28;20230;-54
2021/12/15 04:21:58;;;;;;;162.20;25.77;;;;;;;3.62;100.00;100051.69;5065967;28;20211;-56
2021/12/15 04:24:27;;;;;;;86.97;24.40;;;;;;;3.65;100.00;100059.28;5051414;28;20206;-55
2021/12/15 04:26:56;;;;;;;114.03;24.40;;;;;;;3.70;100.00;100059.09;5049396;28;20200;-57
2021/12/15 04:29:23;;;;;;;106.60;25.53;;;;;;;3.72;100.00;100051.25;5050001;28;20213;-57
2021/12/15 04:31:54;;;;;;;122.53;25.13;;;;;;;3.68;100.00;100058.34;5045156;28;20347;-56
2021/12/15 04:34:23;;;;;;;117.90;24.67;;;;;;;3.75;100.00;100064.03;5034561;28;20675;-57
2021/12/15 04:36:52;;;;;;;81.57;23.67;;;;;;;3.73;100.00;100061.50;5051897;28;20266;-54
2021/12/15 04:39:22;;;;;;;126.70;25.30;;;;;;;3.75;100.00;100064.84;5051699;28;20183;-57
2021/12/15 04:41:51;;;;;;;118.17;23.43;;;;;;;3.74;100.00;100072.69;5048930;28;20215;-57
2021/12/15 04:44:22;;;;;;;66.43;24.00;;;;;;;3.74;100.00;100064.94;5051641;28;20190;-54
2021/12/15 04:46:59;;;;;;;179.17;26.83;;;;;;;3.65;100.00;100059.28;5051779;28;20188;-55
2021/12/15 04:49:29;;;;;;;111.50;25.53;;;;;;;3.69;100.00;100067.75;5031595;28;20384;-56
2021/12/15 04:51:56;;;;;;;77.37;23.40;;;;;;;3.71;100.00;100067.66;5030905;28;20228;-56
2021/12/15 04:54:25;;;;;;;86.87;23.47;;;;;;;3.78;100.00;100074.22;5031722;28;20179;-57
2021/12/15 04:56:51;;;;;;;103.10;25.97;;;;;;;3.76;100.00;100068.28;5031735;28;20600;-57
2021/12/15 04:59:19;;;;;;;88.17;24.60;;;;;;;3.75;100.00;100074.38;5031638;28;20190;-56
2021/12/15 05:01:46;;;;;;;60.27;24.30;;;;;;;3.76;100.00;100065.72;5030572;28;20211;-54
2021/12/15 05:04:14;;;;;;;58.07;23.23;;;;;;;3.80;100.00;100072.41;5032534;28;20190;-57
2021/12/15 05:06:42;;;;;;;59.27;22.87;;;;;;;3.82;100.00;100070.59;5051530;28;20563;-56
2021/12/15 05:09:10;;;;;;;54.07;21.80;;;;;;;3.83;100.00;100080.00;5051369;28;20242;-57
2021/12/15 05:11:37;;;;;;;80.85;24.67;;;;;;;3.82;100.00;100076.56;5062128;28;20089;-57
2021/12/15 05:14:04;;;;;;;65.73;25.27;;;;;;;3.84;100.00;100086.84;5070692;28;20189;-53
2021/12/15 05:16:31;;;;;;;76.20;24.80;;;;;;;3.87;100.00;100084.13;5071459;28;20261;-57
2021/12/15 05:18:58;;;;;;;57.17;24.13;;;;;;;3.87;100.00;100085.84;5071485;28;20221;-57
2021/12/15 05:21:26;;;;;;;66.20;24.10;;;;;;;3.87;100.00;100088.44;5070577;28;20260;-53
2021/12/15 05:23:57;;;;;;;71.03;25.47;;;;;;;3.88;100.00;100088.38;5071320;28;20187;-53
2021/12/15 05:26:24;;;;;;;62.40;25.37;;;;;;;3.91;100.00;100083.06;5071361;28;20186;-55
2021/12/15 05:28:52;;;;;;;59.03;23.07;;;;;;;3.90;100.00;100089.16;5071222;28;20221;-56
2021/12/15 05:31:19;;;;;;;54.20;23.23;;;;;;;3.92;100.00;100091.66;5070061;28;20214;-54
2021/12/15 05:33:45;;;;;;;94.90;28.17;;;;;;;3.90;100.00;100091.72;5071356;28;20187;-54
2021/12/15 05:36:12;;;;;;;76.73;28.53;;;;;;;3.89;100.00;100087.47;5071309;28;20210;-55
2021/12/15 05:38:39;;;;;;;71.37;26.47;;;;;;;3.88;100.00;100085.81;5071242;28;20191;-54
2021/12/15 05:41:07;;;;;;;58.63;23.73;;;;;;;3.93;100.00;100086.44;5070307;28;20277;-54
2021/12/15 05:43:34;;;;;;;54.50;21.80;;;;;;;3.91;100.00;100096.00;5071267;28;20180;-55
2021/12/15 05:46:01;;;;;;;58.70;24.23;;;;;;;3.94;100.00;100095.00;5071168;28;20201;-54
2021/12/15 05:48:28;;;;;;;54.23;22.90;;;;;;;3.88;100.00;100095.28;5071036;28;20212;-51
2021/12/15 05:50:55;;;;;;;59.37;23.73;;;;;;;3.81;100.00;100095.56;5070391;28;20282;-51
2021/12/15 05:53:22;;;;;;;63.47;25.30;;;;;;;3.79;100.00;100091.41;5071159;28;20178;-55
2021/12/15 05:55:49;;;;;;;59.77;24.00;;;;;;;3.80;100.00;100104.22;5070867;28;20567;-51
2021/12/15 05:58:17;;;;;;;52.50;22.87;;;;;;;3.83;100.00;100098.91;5070988;28;20179;-53
2021/12/15 06:00:46;;;;;;;56.90;23.30;;;;;;;3.86;100.00;100097.94;5070205;28;20194;-54
2021/12/15 06:03:14;;;;;;;58.30;24.33;;;;;;;3.83;100.00;100100.69;5056033;28;20267;-54
2021/12/15 06:05:41;;;;;;;52.23;22.77;;;;;;;3.85;100.00;100106.59;5050218;28;20241;-52
2021/12/15 06:08:08;;;;;;;57.13;23.17;;;;;;;3.88;100.00;100105.63;5050050;28;20272;-49
2021/12/15 06:10:39;;;;;;;52.43;22.63;;;;;;;3.90;100.00;100104.66;5052184;28;20690;-53
2021/12/15 06:13:09;;;;;;;52.90;23.60;;;;;;;3.89;100.00;100113.31;5070974;28;20729;-54
2021/12/15 06:15:38;;;;;;;52.10;22.70;;;;;;;3.91;100.00;100108.06;5070868;28;20175;-51
2021/12/15 06:18:09;;;;;;;48.77;21.67;;;;;;;3.82;100.00;100112.75;5070769;28;20179;-54
2021/12/15 06:20:36;;;;;;;46.50;21.33;;;;;;;3.88;100.00;100106.47;5069801;28;20211;-54
2021/12/15 06:23:09;;;;;;;54.80;21.87;;;;;;;3.91;100.00;100102.88;5070515;28;20187;-55
2021/12/15 06:25:36;;;;;;;52.90;22.30;;;;;;;3.93;100.00;100104.50;5070910;28;20194;-51
2021/12/15 06:28:04;;;;;;;54.27;23.77;;;;;;;3.93;100.00;100107.09;5054230;28;20223;-54
2021/12/15 06:30:30;;;;;;;60.23;25.33;;;;;;;3.94;100.00;100113.94;5053203;28;20219;-54
2021/12/15 06:32:59;;;;;;;62.50;25.00;;;;;;;3.96;100.00;100112.13;5054190;28;20585;-51
2021/12/15 06:35:26;;;;;;;60.70;24.93;;;;;;;3.98;100.00;100112.03;5054112;28;20183;-55
2021/12/15 06:37:53;;;;;;;62.37;25.20;;;;;;;3.98;100.00;100107.72;5053982;28;20246;-54
2021/12/15 06:40:20;;;;;;;66.17;29.03;;;;;;;3.97;100.00;100110.34;5052977;28;20198;-51
2021/12/15 06:42:47;;;;;;;63.40;25.63;;;;;;;4.02;100.00;100115.31;5053773;28;20187;-54
2021/12/15 06:45:19;;;;;;;64.33;25.30;;;;;;;3.98;100.00;100120.63;5053888;28;20672;-54
2021/12/15 06:58:44;;;;;;;54.50;24.20;;;;;;;3.90;100.00;100140.81;5053671;28;20179;-55
2021/12/15 07:01:13;;;;;;;51.10;23.43;;;;;;;3.92;100.00;100140.72;5052830;28;20615;-54
2021/12/15 07:03:40;;;;;;;53.20;24.27;;;;;;;3.95;100.00;100125.94;5052610;28;20711;-52
2021/12/15 07:06:08;;;;;;;54.87;23.30;;;;;;;3.97;100.00;100137.03;5048316;28;20270;-55
2021/12/15 07:08:36;;;;;;;40.97;20.30;;;;;;;3.98;100.00;100140.44;5049870;28;20619;-55
2021/12/15 07:11:04;;;;;;;36.97;19.03;;;;;;;3.98;100.00;100141.31;5044988;28;20299;-55
2021/12/15 07:13:31;;;;;;;41.43;19.10;;;;;;;4.02;100.00;100149.75;5072680;28;20245;-54
2021/12/15 07:16:05;;;;;;;37.00;17.07;;;;;;;3.99;100.00;100144.72;5073189;28;20187;-53
2021/12/15 07:18:50;;;;;;;33.83;15.70;;;;;;;3.99;100.00;100150.72;5071985;28;20186;-54
2021/12/15 07:21:22;;;;;;;23.43;13.20;;;;;;;3.95;100.00;100148.34;5051386;28;20209;-55
2021/12/15 07:23:51;;;;;;;26.17;13.03;;;;;;;3.99;100.00;100155.91;5051561;28;20242;-55
2021/12/15 07:26:18;;;;;;;37.87;19.23;;;;;;;3.97;100.00;100155.13;5053264;28;20558;-55
2021/12/15 07:28:46;;;;;;;31.43;15.27;;;;;;;4.01;100.00;100155.81;5052778;28;20291;-53
2021/12/15 07:31:14;;;;;;;26.57;14.73;;;;;;;4.05;100.00;100159.09;5052153;28;20250;-52
2021/12/15 07:33:41;;;;;;;28.80;14.73;;;;;;;4.06;100.00;100156.44;5053207;28;20187;-55
2021/12/15 07:36:08;;;;;;;28.40;14.97;;;;;;;4.08;100.00;100162.38;5052908;28;20187;-52
2021/12/15 07:38:41;;;;;;;23.80;14.10;;;;;;;4.12;100.00;100163.09;5052636;28;20278;-54
2021/12/15 07:41:18;;;;;;;24.43;14.30;;;;;;;4.17;100.00;100162.84;5052277;28;20294;-54
2021/12/15 07:43:45;;;;;;;22.43;12.40;;;;;;;4.18;100.00;100172.28;5052891;28;20730;-55
2021/12/15 07:46:12;;;;;;;24.30;12.45;;;;;;;4.21;100.00;100166.97;5052436;28;20428;-56
2021/12/15 07:48:40;;;;;;;21.10;11.17;;;;;;;4.24;100.00;100175.41;5052371;28;20676;-52
2021/12/15 07:51:09;;;;;;;15.03;8.93;;;;;;;4.24;100.00;100179.75;5051908;28;20203;-53
2021/12/15 07:53:42;;;;;;;14.10;7.70;;;;;;;4.28;100.00;100181.28;5052761;28;20191;-55
2021/12/15 07:56:08;;;;;;;11.40;6.87;;;;;;;4.27;100.00;100177.84;5052763;28;20277;-56
2021/12/15 07:58:35;;;;;;;14.57;8.73;;;;;;;4.30;100.00;100182.06;5052336;28;20214;-55
2021/12/15 08:01:04;;;;;;;14.13;8.53;;;;;;;4.32;100.00;100177.66;5051379;28;20679;-54
2021/12/15 08:03:33;;;;;;;14.03;7.90;;;;;;;4.31;100.00;100188.91;5052351;28;20261;-54
2021/12/15 08:06:00;;;;;;;18.60;10.60;;;;;;;4.25;100.00;100182.25;5051570;28;20199;-57
2021/12/15 08:08:28;;;;;;;13.83;8.40;;;;;;;4.26;100.00;100194.28;5051679;28;20262;-52
2021/12/15 08:10:57;;;;;;;22.83;13.40;;;;;;;4.34;100.00;100195.66;5055882;28;20294;-51
2021/12/15 08:13:25;;;;;;;28.60;14.43;;;;;;;4.37;100.00;100185.19;5071066;28;20210;-51
2021/12/15 08:15:52;;;;;;;35.80;19.60;;;;;;;4.40;100.00;100192.78;5072511;28;20198;-51
2021/12/15 08:18:19;;;;;;;40.63;20.40;;;;;;;4.40;100.00;100196.22;5071998;28;20189;-54
2021/12/15 08:20:46;;;;;;;40.77;20.53;;;;;;;4.29;100.00;100195.88;5066813;28;20199;-53
2021/12/15 08:23:13;;;;;;;37.57;20.53;;;;;;;4.30;100.00;100202.72;5052167;28;20187;-55
2021/12/15 08:25:40;;;;;;;40.30;21.37;;;;;;;4.35;100.00;100203.34;5051958;28;20241;-53
2021/12/15 08:28:10;;;;;;;37.03;19.03;;;;;;;4.38;100.00;100207.53;5050828;28;20191;-55
2021/12/15 08:30:38;;;;;;;41.33;21.33;;;;;;;4.42;100.00;100202.16;5051145;28;20218;-55
2021/12/15 08:33:07;;;;;;;40.87;21.07;;;;;;;4.49;100.00;100222.56;5052007;28;20672;-53
2021/12/15 08:35:38;;;;;;;46.17;24.13;;;;;;;4.53;100.00;100218.91;5051924;28;20262;-57
2021/12/15 08:38:07;;;;;;;42.50;22.50;;;;;;;4.64;100.00;100213.22;5051670;28;20211;-58
2021/12/15 08:40:34;;;;;;;45.00;23.00;;;;;;;4.63;100.00;100224.47;5050762;28;20203;-58
2021/12/15 08:43:01;;;;;;;47.37;23.97;;;;;;;4.72;100.00;100224.03;5051858;28;20191;-57
2021/12/15 08:45:30;;;;;;;47.40;24.50;;;;;;;4.71;100.00;100228.41;5051710;28;20188;-55
2021/12/15 08:47:58;;;;;;;48.13;24.43;;;;;;;4.74;100.00;100224.81;5050651;28;20273;-58
2021/12/15 08:50:29;;;;;;;47.77;23.10;;;;;;;4.77;100.00;100234.19;5050398;28;20207;-55
2021/12/15 08:52:56;;;;;;;45.60;22.50;;;;;;;4.81;100.00;100228.78;5051741;28;20191;-57
2021/12/15 08:55:23;;;;;;;51.67;25.63;;;;;;;4.84;100.00;100226.03;5051434;28;20192;-57
2021/12/15 08:57:53;;;;;;;49.70;24.83;;;;;;;4.83;100.00;100232.13;5051705;28;20560;-55
2021/12/15 09:00:22;;;;;;;46.23;22.77;;;;;;;4.85;100.00;100230.31;5050636;28;20229;-58
2021/12/15 09:02:50;;;;;;;52.53;25.10;;;;;;;4.95;100.00;100229.84;5051505;28;20187;-57
2021/12/15 09:05:20;;;;;;;49.30;23.57;;;;;;;4.90;100.00;100229.25;5051064;28;20270;-56
2021/12/15 09:07:48;;;;;;;49.23;22.90;;;;;;;4.88;100.00;100234.47;5050749;28;20199;-54
2021/12/15 09:10:16;;;;;;;45.37;22.53;;;;;;;4.85;100.00;100235.47;5050141;28;20215;-58
2021/12/15 09:12:43;;;;;;;48.77;23.73;;;;;;;4.81;100.00;100228.78;5070735;28;20290;-58
2021/12/15 09:15:10;;;;;;;41.23;20.23;;;;;;;4.90;100.00;100231.84;5071442;28;20533;-52
2021/12/15 09:17:37;;;;;;;44.23;21.03;;;;;;;4.96;100.00;100224.59;5071314;28;20268;-54
2021/12/15 09:20:07;;;;;;;45.70;22.97;;;;;;;5.04;100.00;100229.41;5053286;28;20223;-55
2021/12/15 09:22:34;;;;;;;48.97;23.17;;;;;;;5.08;100.00;100243.88;5051254;28;20215;-53
2021/12/15 09:25:01;;;;;;;46.27;23.37;;;;;;;5.10;100.00;100231.69;5051318;28;20616;-55
2021/12/15 09:27:28;;;;;;;45.90;22.50;;;;;;;5.14;100.00;100237.53;5051431;28;20237;-57
2021/12/15 09:29:55;;;;;;;46.43;21.90;;;;;;;5.19;100.00;100240.75;5047723;28;20227;-54
2021/12/15 09:32:22;;;;;;;44.43;20.70;;;;;;;5.24;100.00;100231.00;5050784;28;20785;-55
2021/12/15 09:34:48;;;;;;;44.73;21.63;;;;;;;5.30;100.00;100235.03;5038986;28;20271;-55
2021/12/15 09:37:18;;;;;;;43.83;21.30;;;;;;;5.35;100.00;100237.38;5048149;28;20720;-55
2021/12/15 09:39:45;;;;;;;41.13;20.37;;;;;;;5.40;100.00;100238.81;5050548;28;20275;-55
2021/12/15 09:42:16;;;;;;;44.97;20.70;;;;;;;5.39;100.00;100238.91;5049565;28;20250;-53
2021/12/15 09:44:43;;;;;;;43.27;21.40;;;;;;;5.46;100.00;100242.88;5051072;28;20216;-55
2021/12/15 09:47:21;;;;;;;47.53;22.73;;;;;;;5.41;99.75;100239.66;5051035;28;20187;-56
2021/12/15 10:03:49;;;;;;;49.07;22.70;;;;;;;5.80;96.83;100235.09;5051750;28;20187;-53
2021/12/15 10:11:56;;;;;;;59.27;25.50;;;;;;;5.80;95.69;100220.41;5053272;28;20218;-53
2021/12/15 10:17:34;;;;;;;51.97;24.57;;;;;;;5.87;96.17;100221.72;5053814;28;20702;-52
2021/12/15 10:20:03;;;;;;;49.87;24.20;;;;;;;5.94;96.87;100227.44;5054213;28;20182;-54
2021/12/15 10:22:37;;;;;;;59.03;25.80;;;;;;;5.98;95.42;100223.78;5043562;28;20211;-53
2021/12/15 10:25:11;;;;;;;57.07;25.27;;;;;;;5.78;95.81;100226.56;5051248;28;20200;-53
2021/12/15 10:27:42;;;;;;;57.60;26.67;;;;;;;5.84;95.47;100218.47;5051622;28;20230;-54
2021/12/15 10:30:21;;;;;;;59.33;26.03;;;;;;;5.86;95.96;100224.41;5050527;28;20253;-57
2021/12/15 10:32:50;;;;;;;53.43;24.67;;;;;;;5.87;95.74;100221.72;5049199;28;20191;-52
2021/12/15 10:35:20;;;;;;;60.23;26.87;;;;;;;5.81;95.39;100226.41;5052782;28;20194;-51
2021/12/15 10:38:15;;;;;;;59.00;25.47;;;;;;;5.85;96.66;100223.56;5052701;28;20661;-52
2021/12/15 10:40:47;;;;;;;50.27;22.57;;;;;;;5.81;94.91;100226.41;5049839;28;20208;-54
2021/12/15 10:43:14;;;;;;;46.90;22.70;;;;;;;5.91;94.91;100220.66;5050818;28;20220;-54
2021/12/15 10:45:46;;;;;;;53.43;23.93;;;;;;;5.66;95.79;100209.94;5052941;28;20278;-50
2021/12/15 10:48:24;;;;;;;54.13;25.83;;;;;;;5.68;96.80;100214.09;5052792;28;20202;-50
2021/12/15 10:50:51;;;;;;;56.33;25.47;;;;;;;5.74;96.85;100212.94;5048576;28;20215;-51
2021/12/15 10:53:31;;;;;;;50.67;23.47;;;;;;;5.81;96.56;100209.13;5051476;28;20270;-52
2021/12/15 10:56:00;;;;;;;50.00;23.03;;;;;;;5.86;96.74;100209.69;5046145;28;20192;-51
2021/12/15 10:58:39;;;;;;;52.23;24.27;;;;;;;5.92;95.08;100211.13;5048652;28;20187;-51
2021/12/15 11:01:36;;;;;;;50.33;24.60;;;;;;;5.86;94.44;100204.50;5048007;28;20286;-50
2021/12/15 11:04:05;;;;;;;48.00;21.83;;;;;;;5.83;94.73;100207.25;5052076;28;20223;-55
2021/12/15 11:06:33;;;;;;;43.97;21.50;;;;;;;5.74;95.75;100210.38;5052208;28;20816;-51
2021/12/15 11:09:16;;;;;;;46.37;21.63;;;;;;;5.59;96.63;100207.66;5053385;28;20192;-56
2021/12/15 11:11:59;;;;;;;50.07;23.23;;;;;;;5.85;96.11;100202.00;5047807;28;20760;-56
2021/12/15 11:14:29;;;;;;;52.77;23.80;;;;;;;5.94;94.88;100203.25;5050395;28;20630;-53
2021/12/15 11:17:13;;;;;;;24.00;11.67;;;;;;;6.61;100.00;100208.31;5052000;28;20192;-51
2021/12/15 11:19:43;;;;;;;51.40;25.37;;;;;;;6.72;100.00;100194.72;5051336;28;20294;-51
2021/12/15 11:22:33;;;;;;;45.17;22.13;;;;;;;6.59;96.54;100192.00;5049653;28;20231;-52
2021/12/15 11:25:02;;;;;;;46.03;23.07;;;;;;;6.76;94.50;100194.47;5048859;28;20203;-52
2021/12/15 11:27:31;;;;;;;44.87;21.17;;;;;;;6.76;92.26;100191.88;5050109;28;20198;-50
2021/12/15 11:29:57;;;;;;;44.17;20.80;;;;;;;6.59;90.60;100182.44;5048482;28;20214;-55
2021/12/15 11:32:39;;;;;;;46.10;23.50;;;;;;;6.44;92.32;100178.09;5051435;28;20235;-51
2021/12/15 11:35:09;;;;;;;44.10;22.17;;;;;;;6.57;91.51;100173.91;5052491;28;20582;-53
2021/12/15 11:37:53;;;;;;;50.70;23.03;;;;;;;6.45;91.54;100179.78;5051179;28;20266;-53
2021/12/15 11:40:27;;;;;;;51.70;23.53;;;;;;;6.37;90.94;100182.81;5050774;28;20656;-50
2021/12/15 11:42:56;;;;;;;52.03;24.03;;;;;;;6.44;93.00;100176.38;5052824;28;20198;-50
2021/12/15 11:45:24;;;;;;;55.67;24.93;;;;;;;6.52;92.02;100173.31;5052482;28;20199;-52
2021/12/15 11:47:51;;;;;;;55.40;26.67;;;;;;;6.37;91.44;100169.84;5052408;28;20683;-50
2021/12/15 11:50:22;;;;;;;58.50;26.30;;;;;;;6.44;91.87;100168.59;5051849;28;20294;-52
2021/12/15 11:52:50;;;;;;;57.03;27.83;;;;;;;6.44;92.44;100165.13;5052043;28;20214;-52
2021/12/15 11:55:30;;;;;;;57.53;26.03;;;;;;;6.34;93.39;100163.09;5048150;28;20456;-53
2021/12/15 11:57:59;;;;;;;53.30;25.47;;;;;;;6.44;92.57;100155.63;5047551;28;20199;-54
2021/12/15 12:00:28;;;;;;;56.60;27.23;;;;;;;6.26;92.09;100154.91;5047444;28;20261;-53
2021/12/15 12:02:58;;;;;;;59.83;26.60;;;;;;;6.35;93.11;100151.78;5052298;28;20183;-50
2021/12/15 12:05:29;;;;;;;55.93;25.90;;;;;;;6.24;93.30;100153.28;5051332;28;20183;-51
2021/12/15 12:07:59;;;;;;;56.60;25.43;;;;;;;6.18;94.29;100152.72;5052370;28;20530;-52
2021/12/15 12:10:31;;;;;;;59.00;27.40;;;;;;;6.28;93.85;100149.59;5051254;28;20207;-50
2021/12/15 12:13:06;;;;;;;60.73;27.20;;;;;;;6.30;94.09;100151.22;5033056;28;20188;-53
2021/12/15 12:15:36;;;;;;;59.50;26.57;;;;;;;6.28;92.71;100147.00;5048607;28;20195;-51
2021/12/15 12:18:06;;;;;;;58.60;26.30;;;;;;;6.41;93.71;100145.41;5050079;28;20191;-50